Home > Products > Valid Products > TAF

000
FTUS41 KGYX 061952 AAA
TAFPWM
TAF AMD
KPWM 061952Z 0620/0718 15009KT P6SM SCT030
     FM070200 11006KT P6SM OVC015=



000
FTUS41 KGYX 061730
TAFLEB
TAF
KLEB 061730Z 0618/0718 33008KT P6SM SCT050
     FM070400 VRB03KT P6SM OVC015=



000
FTUS41 KGYX 061730
TAFCON
TAF
KCON 061730Z 0618/0718 VRB03KT P6SM SCT035
     FM070300 VRB03KT P6SM OVC015=



000
FTUS41 KGYX 061730
TAFAUG
TAF
KAUG 061730Z 0618/0718 03006KT P6SM SCT030
     FM070600 08005KT P6SM OVC015
     FM071400 08005KT P6SM OVC025=



000
FTUS41 KGYX 061730
TAFPSM
TAF
KPSM 061730Z 0618/0718 13011KT P6SM SCT025
     FM070300 09007KT P6SM OVC015=



000
FTUS41 KGYX 061730
TAFPWM
TAF
KPWM 061730Z 0618/0718 12012KT P6SM SCT030
     FM070200 11006KT P6SM OVC015=



000
FTUS41 KGYX 061730
TAFCON
TAF
KCON 061730Z 0618/0718 VRB03KT P6SM SCT035
     FM070300 VRB03KT P6SM OVC015=



000
FTUS41 KGYX 061730
TAFAUG
TAF
KAUG 061730Z 0618/0718 03006KT P6SM SCT030
     FM070600 08005KT P6SM OVC015
     FM071400 08005KT P6SM OVC025=



000
FTUS41 KGYX 061730
TAFPSM
TAF
KPSM 061730Z 0618/0718 13011KT P6SM SCT025
     FM070300 09007KT P6SM OVC015=



000
FTUS41 KGYX 061730
TAFPWM
TAF
KPWM 061730Z 0618/0718 12012KT P6SM SCT030
     FM070200 11006KT P6SM OVC015=



000
FTUS41 KGYX 061730
TAFLEB
TAF
KLEB 061730Z 0618/0718 33008KT P6SM SCT050
     FM070400 VRB03KT P6SM OVC015=



000
FTUS41 KGYX 061641 AAA
TAFPSM
TAF AMD
KPSM 061641Z 0617/0712 11009KT P6SM SCT025
     FM070500 05001KT P6SM OVC009=



000
FTUS41 KGYX 061641 AAA
TAFPSM
TAF AMD
KPSM 061641Z 0617/0712 11009KT P6SM SCT025
     FM070500 05001KT P6SM OVC009=



000
FTUS41 KGYX 061641 AAB
TAFCON
TAF AMD
KCON 061641Z 0617/0712 VRB03KT P6SM BKN035
     FM070000 08002KT P6SM OVC015
     FM070500 05001KT P6SM OVC009=



000
FTUS41 KGYX 061641 AAB
TAFCON
TAF AMD
KCON 061641Z 0617/0712 VRB03KT P6SM BKN035
     FM070000 08002KT P6SM OVC015
     FM070500 05001KT P6SM OVC009=



000
FTUS41 KGYX 061521 AAA
TAFCON
TAF AMD
KCON 061521Z 0615/0712 05008KT P6SM BKN030
     FM070000 08002KT P6SM OVC015
     FM070500 05001KT P6SM OVC009=



000
FTUS41 KGYX 061521 AAA
TAFCON
TAF AMD
KCON 061521Z 0615/0712 05008KT P6SM BKN030
     FM070000 08002KT P6SM OVC015
     FM070500 05001KT P6SM OVC009=



000
FTUS41 KGYX 061328 AAA
TAFAUG
TAF AMD
KAUG 061328Z 0613/0712 03011G18KT P6SM OVC019
     FM061500 01009KT P6SM BKN035
     FM062200 11008KT P6SM OVC015
     FM070300 18005KT 4SM BR OVC003=



000
FTUS41 KGYX 061326 AAA
TAFPWM
TAF AMD
KPWM 061326Z 0613/0712 03009KT P6SM BKN035
     FM061500 10008KT P6SM OVC050
     FM070000 14006KT P6SM OVC015
     FM070400 VRB04KT P6SM OVC007=



000
FTUS41 KGYX 061326 AAA
TAFPWM
TAF AMD
KPWM 061326Z 0613/0712 03009KT P6SM BKN035
     FM061500 10008KT P6SM OVC050
     FM070000 14006KT P6SM OVC015
     FM070400 VRB04KT P6SM OVC007=



000
FTUS41 KGYX 061132
TAFCON
TAF
KCON 061132Z 0612/0712 31005KT P6SM OVC030
     FM061400 03007KT P6SM OVC050
     FM070000 08002KT P6SM OVC015
     FM070500 05001KT P6SM OVC009=



000
FTUS41 KGYX 061132
TAFAUG
TAF
KAUG 061132Z 0612/0712 36012KT P6SM OVC022
     FM061400 35009KT P6SM BKN035
     FM062200 11008KT P6SM OVC015
     FM070300 18005KT 4SM BR OVC003=



000
FTUS41 KGYX 061132
TAFLEB
TAF
KLEB 061132Z 0612/0712 00000KT P6SM SKC
     FM061800 03009KT P6SM OVC050
     FM070200 13002KT P6SM OVC015
     FM070600 09002KT P6SM OVC007=



000
FTUS41 KGYX 061132
TAFPSM
TAF
KPSM 061132Z 0612/0712 36005KT P6SM OVC021
     FM061500 03007KT P6SM OVC025
     FM070500 05001KT P6SM OVC009=



000
FTUS41 KGYX 061132
TAFPWM
TAF
KPWM 061132Z 0612/0712 36010KT P6SM BKN025
     FM061500 10008KT P6SM OVC050
     FM070000 14006KT P6SM OVC015
     FM070400 VRB04KT P6SM OVC007=



000
FTUS41 KGYX 061132
TAFPWM
TAF
KPWM 061132Z 0612/0712 36010KT P6SM BKN025
     FM061500 10008KT P6SM OVC050
     FM070000 14006KT P6SM OVC015
     FM070400 VRB04KT P6SM OVC007=



000
FTUS41 KGYX 061132
TAFAUG
TAF
KAUG 061132Z 0612/0712 36012KT P6SM OVC022
     FM061400 35009KT P6SM BKN035
     FM062200 11008KT P6SM OVC015
     FM070300 18005KT 4SM BR OVC003=



000
FTUS41 KGYX 061132
TAFPSM
TAF
KPSM 061132Z 0612/0712 36005KT P6SM OVC021
     FM061500 03007KT P6SM OVC025
     FM070500 05001KT P6SM OVC009=



000
FTUS41 KGYX 061132
TAFLEB
TAF
KLEB 061132Z 0612/0712 00000KT P6SM SKC
     FM061800 03009KT P6SM OVC050
     FM070200 13002KT P6SM OVC015
     FM070600 09002KT P6SM OVC007=



000
FTUS41 KGYX 060857 AAA
TAFPWM
TAF AMD
KPWM 060857Z 0609/0706 36009KT P6SM BKN025
     FM061500 10008KT P6SM OVC050
     FM070000 14006KT P6SM OVC015=



000
FTUS41 KGYX 060857 AAA
TAFPSM
TAF AMD
KPSM 060857Z 0609/0706 34010KT P6SM OVC025
     FM061500 03007KT P6SM OVC025=



000
FTUS41 KGYX 060857 AAA
TAFCON
TAF AMD
KCON 060857Z 0609/0706 34004KT P6SM OVC030
     FM061400 03007KT P6SM OVC050
     FM070000 08002KT P6SM OVC015=



000
FTUS41 KGYX 060857 AAA
TAFLEB
TAF AMD
KLEB 060857Z 0609/0706 00000KT P6SM SCT050
     FM061800 03009KT P6SM OVC050
     FM070200 13002KT P6SM OVC015=



000
FTUS41 KGYX 060857 AAA
TAFAUG
TAF AMD
KAUG 060857Z 0609/0706 01011KT P6SM OVC025
     FM061400 35009KT P6SM BKN035
     FM062200 11008KT P6SM OVC015=



000
FTUS41 KGYX 060857 AAA
TAFPSM
TAF AMD
KPSM 060857Z 0609/0706 34010KT P6SM OVC025
     FM061500 03007KT P6SM OVC025=



000
FTUS41 KGYX 060857 AAA
TAFCON
TAF AMD
KCON 060857Z 0609/0706 34004KT P6SM OVC030
     FM061400 03007KT P6SM OVC050
     FM070000 08002KT P6SM OVC015=



000
FTUS41 KGYX 060536
TAFCON
TAF
KCON 060536Z 0606/0706 00000KT P6SM OVC030
      TEMPO 0606/0608 09005KT 4SM BR OVC015
     FM061400 03007KT P6SM OVC050
     FM070000 08002KT P6SM OVC015=



000
FTUS41 KGYX 060536
TAFPWM
TAF
KPWM 060536Z 0606/0706 36010KT P6SM -RA OVC090
     FM060900 36006KT 5SM -DZ BR OVC030
     FM061500 10008KT P6SM OVC050
     FM070000 14006KT P6SM OVC015=



000
FTUS41 KGYX 060536
TAFAUG
TAF
KAUG 060536Z 0606/0706 01009G18KT P6SM -RA OVC021
     FM060900 36006KT 5SM -DZ BR OVC015
     FM061400 35009KT P6SM BKN035
     FM062200 11008KT P6SM OVC015=



000
FTUS41 KGYX 060536
TAFLEB
TAF
KLEB 060536Z 0606/0706 04003KT P6SM OVC035
     FM061800 03009KT P6SM OVC050
     FM070200 13002KT P6SM OVC015=



000
FTUS41 KGYX 060536
TAFPSM
TAF
KPSM 060536Z 0606/0706 36008KT P6SM -RA BKN012 OVC021
      TEMPO 0606/0609 09005KT 4SM -DZ BR OVC015
     FM061500 03007KT P6SM OVC025=



000
FTUS41 KGYX 060254 AAE
TAFPSM
TAF AMD
KPSM 060254Z 0603/0624 01009KT P6SM -RA SCT009 SCT045 OVC060
      TEMPO 0603/0604 4SM -RA BR OVC020
     FM060600 36006KT 5SM -DZ BR OVC015
     FM061500 03007KT P6SM OVC025=



000
FTUS41 KGYX 060227 AAD
TAFPSM
TAF AMD
KPSM 060227Z 0602/0624 01009KT P6SM -RA SCT009 SCT045 OVC060
      TEMPO 0602/0604 1 1/2SM -RA BR OVC012
     FM060400 36006KT 5SM -DZ BR OVC015
     FM061500 03007KT P6SM OVC025=



000
FTUS41 KGYX 060227 AAD
TAFPSM
TAF AMD
KPSM 060227Z 0602/0624 01009KT P6SM -RA SCT009 SCT045 OVC060
      TEMPO 0602/0604 1 1/2SM -RA BR OVC012
     FM060400 36006KT 5SM -DZ BR OVC015
     FM061500 03007KT P6SM OVC025=



000
FTUS41 KGYX 060227 AAB
TAFPWM
TAF AMD
KPWM 060227Z 0602/0624 01009KT P6SM -RA SCT024 SCT030 OVC040
      TEMPO 0602/0604 4SM -RA BR OVC012
     FM060900 36006KT 5SM -DZ BR OVC015
     FM061500 03007KT P6SM OVC025
     FM061800 10008KT P6SM OVC050=



000
FTUS41 KGYX 060215 AAA
TAFPWM
TAF AMD
KPWM 060215Z 0602/0624 02009KT P6SM -RA BKN024 OVC035
      TEMPO 0602/0604 4SM -RA BR OVC012
     FM060900 36006KT 5SM -DZ BR OVC015
     FM061500 03007KT P6SM OVC025
     FM061800 10008KT P6SM OVC050=



000
FTUS41 KGYX 060140 AAC
TAFPSM
TAF AMD
KPSM 060140Z 0602/0624 01008KT P6SM RA FEW007 SCT013 OVC060
      TEMPO 0602/0604 1 1/2SM -RA BR OVC012
     FM060400 36006KT 5SM -DZ BR OVC015
     FM061500 03007KT P6SM OVC025=



000
FTUS41 KGYX 060059 AAB
TAFPSM
TAF AMD
KPSM 060059Z 0601/0624 01008KT P6SM -RA BKN008 BKN014 OVC020
      TEMPO 0601/0604 1 1/2SM -RA BR OVC012
     FM060900 36006KT 5SM -DZ BR OVC015
     FM061500 03007KT P6SM OVC025=



000
FTUS41 KGYX 060059 AAB
TAFPSM
TAF AMD
KPSM 060059Z 0601/0624 01008KT P6SM -RA BKN008 BKN014 OVC020
      TEMPO 0601/0604 1 1/2SM -RA BR OVC012
     FM060900 36006KT 5SM -DZ BR OVC015
     FM061500 03007KT P6SM OVC025=



000
FTUS41 KGYX 060058 AAA
TAFAUG
TAF AMD
KAUG 060058Z 0601/0624 02014G21KT P6SM OVC021
     FM060900 36006KT 5SM -DZ BR OVC015
     FM061400 35009KT P6SM BKN035=



000
FTUS41 KGYX 060058 AAA
TAFCON
TAF AMD
KCON 060058Z 0601/0624 03011G16KT P6SM OVC025
     FM060900 36006KT 5SM -DZ BR OVC015
     FM061400 03007KT P6SM OVC035=



000
FTUS41 KGYX 060058 AAA
TAFCON
TAF AMD
KCON 060058Z 0601/0624 03011G16KT P6SM OVC025
     FM060900 36006KT 5SM -DZ BR OVC015
     FM061400 03007KT P6SM OVC035=



000
FTUS41 KGYX 060058 AAA
TAFAUG
TAF AMD
KAUG 060058Z 0601/0624 02014G21KT P6SM OVC021
     FM060900 36006KT 5SM -DZ BR OVC015
     FM061400 35009KT P6SM BKN035=



000
FTUS41 KGYX 060001 AAA
TAFPSM
TAF AMD
KPSM 060001Z 0600/0624 03007KT P6SM -RA BKN006 OVC011
      TEMPO 0600/0604 1 1/2SM -RA BR OVC012
     FM060900 36006KT 5SM -DZ BR OVC015
     FM061500 03007KT P6SM OVC025=



000
FTUS41 KGYX 052320
TAFAUG
TAF
KAUG 052320Z 0600/0624 03013G20KT P6SM OVC018
     FM060100 36010KT 5SM -RA OVC007
     FM060900 36006KT 5SM -DZ BR OVC015
     FM061400 35009KT P6SM BKN035=



000
FTUS41 KGYX 052320
TAFPWM
TAF
KPWM 052320Z 0600/0624 03010KT P6SM OVC019
      TEMPO 0600/0604 4SM -RA BR OVC012
     FM060900 36006KT 5SM -DZ BR OVC015
     FM061500 03007KT P6SM OVC025
     FM061800 10008KT P6SM OVC050=



000
FTUS41 KGYX 052320
TAFPSM
TAF
KPSM 052320Z 0600/0624 03007KT 4SM -RA BR OVC007
      TEMPO 0600/0604 1 1/2SM -RA BR OVC012
     FM060900 36006KT 5SM -DZ BR OVC015
     FM061500 03007KT P6SM OVC025=



000
FTUS41 KGYX 052320
TAFLEB
TAF
KLEB 052320Z 0600/0624 07003KT P6SM OVC035
     FM061800 03009KT P6SM OVC050
     FM062100 08008KT P6SM OVC050=



000
FTUS41 KGYX 052320
TAFLEB
TAF
KLEB 052320Z 0600/0624 07003KT P6SM OVC035
     FM061800 03009KT P6SM OVC050
     FM062100 08008KT P6SM OVC050=



000
FTUS41 KGYX 052320
TAFCON
TAF
KCON 052320Z 0600/0624 VRB06KT P6SM OVC022
     FM060900 36006KT 5SM -DZ BR OVC015
     FM061400 03007KT P6SM OVC035=



000
FTUS41 KGYX 052320
TAFAUG
TAF
KAUG 052320Z 0600/0624 03013G20KT P6SM OVC018
     FM060100 36010KT 5SM -RA OVC007
     FM060900 36006KT 5SM -DZ BR OVC015
     FM061400 35009KT P6SM BKN035=



000
FTUS41 KGYX 052320
TAFPWM
TAF
KPWM 052320Z 0600/0624 03010KT P6SM OVC019
      TEMPO 0600/0604 4SM -RA BR OVC012
     FM060900 36006KT 5SM -DZ BR OVC015
     FM061500 03007KT P6SM OVC025
     FM061800 10008KT P6SM OVC050=



000
FTUS41 KGYX 052320
TAFPSM
TAF
KPSM 052320Z 0600/0624 03007KT 4SM -RA BR OVC007
      TEMPO 0600/0604 1 1/2SM -RA BR OVC012
     FM060900 36006KT 5SM -DZ BR OVC015
     FM061500 03007KT P6SM OVC025=



000
FTUS41 KGYX 052320
TAFCON
TAF
KCON 052320Z 0600/0624 VRB06KT P6SM OVC022
     FM060900 36006KT 5SM -DZ BR OVC015
     FM061400 03007KT P6SM OVC035=



000
FTUS41 KGYX 052157 AAB
TAFCON
TAF AMD
KCON 052157Z 0522/0618 07005KT P6SM OVC018
     FM060000 36010G19KT 6SM -SHRA BR OVC015
     FM060900 36006KT 5SM -DZ BR OVC015
     FM061400 03007KT P6SM OVC035=



000
FTUS41 KGYX 052157 AAC
TAFPSM
TAF AMD
KPSM 052157Z 0522/0618 05006KT 4SM BR OVC009
     FM060900 36006KT 5SM -DZ BR OVC015
     FM061500 03007KT P6SM OVC025=



000
FTUS41 KGYX 052157 AAB
TAFCON
TAF AMD
KCON 052157Z 0522/0618 07005KT P6SM OVC018
     FM060000 36010G19KT 6SM -SHRA BR OVC015
     FM060900 36006KT 5SM -DZ BR OVC015
     FM061400 03007KT P6SM OVC035=



000
FTUS41 KGYX 052046 AAB
TAFPSM
TAF AMD
KPSM 052046Z 0521/0618 04009G16KT P6SM OVC009
     FM052200 01010G17KT 5SM -RA BR OVC012
     FM060900 36006KT 5SM -DZ BR OVC015
     FM061500 03007KT P6SM OVC025=



000
FTUS41 KGYX 052046 AAB
TAFPSM
TAF AMD
KPSM 052046Z 0521/0618 04009G16KT P6SM OVC009
     FM052200 01010G17KT 5SM -RA BR OVC012
     FM060900 36006KT 5SM -DZ BR OVC015
     FM061500 03007KT P6SM OVC025=



000
FTUS41 KGYX 051925 AAB
TAFLEB
TAF AMD
KLEB 051925Z 0519/0618 03007KT P6SM OVC035=



000
FTUS41 KGYX 051907 AAA
TAFLEB
TAF AMD
KLEB 051907Z 0519/0618 01009KT P6SM OVC029=



000
FTUS41 KGYX 051906 AAA
TAFCON
TAF AMD
KCON 051906Z 0519/0618 03008G17KT P6SM OVC017
     FM060000 36010G19KT 6SM -SHRA BR OVC015
     FM060900 36006KT 5SM -DZ BR OVC015
     FM061400 03007KT P6SM OVC035=



000
FTUS41 KGYX 051906 AAA
TAFPSM
TAF AMD
KPSM 051906Z 0519/0618 04009G18KT P6SM OVC012
     FM052200 01010G17KT 5SM -RA BR OVC012
     FM060900 36006KT 5SM -DZ BR OVC015
     FM061500 03007KT P6SM OVC025=



000
FTUS41 KGYX 051728
TAFLEB
TAF
KLEB 051728Z 0518/0618 01009KT P6SM OVC035=



000
FTUS41 KGYX 051728
TAFPSM
TAF
KPSM 051728Z 0518/0618 04009G18KT P6SM OVC012
     FM051900 04012G20KT P6SM OVC025
     FM052200 01010G17KT 5SM -RA BR OVC012
     FM060900 36006KT 5SM -DZ BR OVC015
     FM061500 03007KT P6SM OVC025=



000
FTUS41 KGYX 051728
TAFPWM
TAF
KPWM 051728Z 0518/0618 03010G18KT 6SM BR OVC013
     FM060000 01012G20KT 5SM -RA BR OVC012
     FM060900 36006KT 5SM -DZ BR OVC015
     FM061500 03007KT P6SM OVC025=



000
FTUS41 KGYX 051728
TAFAUG
TAF
KAUG 051728Z 0518/0618 04010G18KT P6SM OVC013
     FM060100 36010KT 5SM -RA OVC007
     FM060900 36006KT 5SM -DZ BR OVC015
     FM061400 35009KT P6SM BKN035=



000
FTUS41 KGYX 051728
TAFCON
TAF
KCON 051728Z 0518/0618 03012G18KT P6SM OVC017
     FM051900 02012G20KT P6SM OVC025
     FM060000 36010G19KT 6SM -SHRA BR OVC015
     FM060900 36006KT 5SM -DZ BR OVC015
     FM061400 03007KT P6SM OVC035=



000
FTUS41 KGYX 051505 AAB
TAFLEB
TAF AMD
KLEB 051505Z 0515/0612 35006KT P6SM SCT002 OVC010
     FM051600 01005KT P6SM OVC035
     FM051800 36005KT P6SM BKN050=



000
FTUS41 KGYX 051410 AAB
TAFAUG
TAF AMD
KAUG 051410Z 0514/0612 02012G18KT 3SM -DZ BR OVC006
     FM051600 02010KT P6SM OVC012
     FM051800 02010G20KT P6SM OVC025
     FM060100 36010KT 5SM -RA OVC007=



000
FTUS41 KGYX 051410 AAB
TAFPSM
TAF AMD
KPSM 051410Z 0514/0612 03010G18KT 6SM -DZ BR OVC005
     FM051600 03012G19KT 6SM BR OVC012
     FM051800 04012G20KT P6SM OVC025
     FM052100 01010G17KT 5SM -RA OVC012=



000
FTUS41 KGYX 051409 AAA
TAFCON
TAF AMD
KCON 051409Z 0514/0612 04009KT P6SM OVC017
     FM051600 04010G20KT P6SM OVC025
     FM060000 35010KT P6SM BKN015 OVC025=



000
FTUS41 KGYX 051409 AAA
TAFCON
TAF AMD
KCON 051409Z 0514/0612 04009KT P6SM OVC017
     FM051600 04010G20KT P6SM OVC025
     FM060000 35010KT P6SM BKN015 OVC025=



000
FTUS41 KGYX 051232 AAA
TAFLEB
TAF AMD
KLEB 051232Z 0513/0612 VRB03KT P6SM SCT002 OVC010
     FM051500 01005KT P6SM OVC035
     FM051800 36005KT P6SM BKN050=



000
FTUS41 KGYX 051232 AAA
TAFLEB
TAF AMD
KLEB 051232Z 0513/0612 VRB03KT P6SM SCT002 OVC010
     FM051500 01005KT P6SM OVC035
     FM051800 36005KT P6SM BKN050=



000
FTUS41 KGYX 051231 AAA
TAFAUG
TAF AMD
KAUG 051231Z 0513/0612 02012KT 3SM -DZ BR OVC006
     FM051400 02010KT P6SM OVC012
     FM051600 02010G20KT P6SM OVC025
     FM060100 36010KT 5SM -RA OVC007=



000
FTUS41 KGYX 051231 AAA
TAFAUG
TAF AMD
KAUG 051231Z 0513/0612 02012KT 3SM -DZ BR OVC006
     FM051400 02010KT P6SM OVC012
     FM051600 02010G20KT P6SM OVC025
     FM060100 36010KT 5SM -RA OVC007=



000
FTUS41 KGYX 051231 AAA
TAFPSM
TAF AMD
KPSM 051231Z 0513/0612 04010KT 2SM -DZ BR OVC003
     FM051400 02012KT 6SM BR OVC012
     FM051600 04012G20KT P6SM OVC025
     FM052100 01010G17KT 5SM -RA OVC012=



000
FTUS41 KGYX 051231 AAA
TAFPSM
TAF AMD
KPSM 051231Z 0513/0612 04010KT 2SM -DZ BR OVC003
     FM051400 02012KT 6SM BR OVC012
     FM051600 04012G20KT P6SM OVC025
     FM052100 01010G17KT 5SM -RA OVC012=



000
FTUS41 KGYX 051230 AAA
TAFPWM
TAF AMD
KPWM 051230Z 0513/0612 02009KT 2SM -DZ BR OVC008
     FM051400 03010KT 6SM BR OVC012
     FM051600 02012G20KT P6SM OVC025
     FM060000 01012KT 4SM -RA BR OVC012=



000
FTUS41 KGYX 051230 AAA
TAFPWM
TAF AMD
KPWM 051230Z 0513/0612 02009KT 2SM -DZ BR OVC008
     FM051400 03010KT 6SM BR OVC012
     FM051600 02012G20KT P6SM OVC025
     FM060000 01012KT 4SM -RA BR OVC012=



000
FTUS41 KGYX 051123
TAFAUG
TAF
KAUG 051123Z 0512/0612 02007KT 3SM -DZ BR OVC009
     FM051400 02010KT P6SM OVC012
     FM051600 02010G20KT P6SM OVC025
     FM060100 36010KT 5SM -RA OVC007=



000
FTUS41 KGYX 051123
TAFPSM
TAF
KPSM 051123Z 0512/0612 02010KT 6SM -DZ BR OVC007
     FM051400 02012KT P6SM OVC012
     FM051600 04012G20KT P6SM OVC025
     FM052100 01010G17KT 5SM -RA OVC012=



000
FTUS41 KGYX 051123
TAFCON
TAF
KCON 051123Z 0512/0612 35006KT P6SM OVC012
     FM051400 04010G20KT P6SM OVC025
     FM060000 35010KT P6SM BKN015 OVC025=



000
FTUS41 KGYX 051123
TAFLEB
TAF
KLEB 051123Z 0512/0612 00000KT P6SM SCT007 OVC025
     FM051400 01005KT P6SM OVC035
     FM051800 36005KT P6SM BKN050=



000
FTUS41 KGYX 051123
TAFPWM
TAF
KPWM 051123Z 0512/0612 01009KT 3SM -DZ BR OVC007
     FM051400 03010KT P6SM OVC012
     FM051600 02012G20KT P6SM OVC025
     FM060000 01012KT 4SM -RA BR OVC012=



000
FTUS41 KGYX 051123
TAFAUG
TAF
KAUG 051123Z 0512/0612 02007KT 3SM -DZ BR OVC009
     FM051400 02010KT P6SM OVC012
     FM051600 02010G20KT P6SM OVC025
     FM060100 36010KT 5SM -RA OVC007=



000
FTUS41 KGYX 051123
TAFLEB
TAF
KLEB 051123Z 0512/0612 00000KT P6SM SCT007 OVC025
     FM051400 01005KT P6SM OVC035
     FM051800 36005KT P6SM BKN050=



000
FTUS41 KGYX 051123
TAFPSM
TAF
KPSM 051123Z 0512/0612 02010KT 6SM -DZ BR OVC007
     FM051400 02012KT P6SM OVC012
     FM051600 04012G20KT P6SM OVC025
     FM052100 01010G17KT 5SM -RA OVC012=



000
FTUS41 KGYX 051123
TAFPWM
TAF
KPWM 051123Z 0512/0612 01009KT 3SM -DZ BR OVC007
     FM051400 03010KT P6SM OVC012
     FM051600 02012G20KT P6SM OVC025
     FM060000 01012KT 4SM -RA BR OVC012=



000
FTUS41 KGYX 051123
TAFCON
TAF
KCON 051123Z 0512/0612 35006KT P6SM OVC012
     FM051400 04010G20KT P6SM OVC025
     FM060000 35010KT P6SM BKN015 OVC025=



000
FTUS41 KGYX 050905 AAA
TAFPWM
TAF AMD
KPWM 050905Z 0509/0606 01009KT 6SM -DZ BR OVC007
     FM051200 03010KT P6SM OVC012
     FM051500 02012G20KT P6SM OVC025
     FM060000 01012KT 4SM -RA BR OVC012=



000
FTUS41 KGYX 050905 AAA
TAFPSM
TAF AMD
KPSM 050905Z 0509/0606 01010KT 4SM -DZ BR OVC003
     FM051200 02011KT P6SM OVC007
     FM051400 02012KT P6SM OVC012
     FM051600 04012G20KT P6SM OVC025
     FM052100 01010G17KT 5SM -RA OVC012=



000
FTUS41 KGYX 050905 AAA
TAFCON
TAF AMD
KCON 050905Z 0509/0606 35006KT 6SM -DZ OVC012
     FM051200 04010G20KT P6SM OVC025
     FM060000 35010KT P6SM BKN015 OVC025=



000
FTUS41 KGYX 050905 AAA
TAFAUG
TAF AMD
KAUG 050905Z 0509/0606 02007KT 6SM -DZ BR OVC009
     FM051200 02010KT P6SM OVC012
     FM051500 02010G20KT P6SM OVC025
     FM060100 36010KT 5SM -RA OVC007=



000
FTUS41 KGYX 050905 AAA
TAFLEB
TAF AMD
KLEB 050905Z 0509/0606 00000KT P6SM SCT007 OVC025
     FM051300 01005KT P6SM OVC035
     FM051800 36005KT P6SM BKN050=



000
FTUS41 KGYX 050520
TAFPSM
TAF
KPSM 050520Z 0506/0606 03010KT 5SM -DZ BR OVC005
     FM051200 02011KT P6SM OVC012
     FM051600 04012G20KT P6SM OVC025
     FM052100 01010G17KT 5SM -RA OVC012=



000
FTUS41 KGYX 050520
TAFLEB
TAF
KLEB 050520Z 0506/0606 00000KT P6SM SCT007 OVC015
     FM051300 01005KT P6SM OVC025
     FM051800 36005KT P6SM BKN035=



000
FTUS41 KGYX 050520
TAFPWM
TAF
KPWM 050520Z 0506/0606 05009KT 6SM -RA BR OVC007
     FM051000 03010KT 6SM -DZ OVC012
     FM051400 02012G20KT P6SM OVC025
     FM060000 01012KT 4SM -RA BR OVC012=



000
FTUS41 KGYX 050520
TAFAUG
TAF
KAUG 050520Z 0506/0606 02007KT 5SM -RA BKN005 OVC010
     FM050800 02009KT 6SM -DZ BR OVC009
     FM051200 02010KT P6SM OVC012
     FM051500 02010G20KT P6SM OVC025
     FM060100 36010KT 5SM -RA OVC007=



000
FTUS41 KGYX 050520
TAFCON
TAF
KCON 050520Z 0506/0606 35006KT 6SM -RA OVC012
     FM051500 04010G20KT P6SM OVC025
     FM060000 35010KT P6SM BKN015 OVC025=



000
FTUS41 KGYX 050323 AAB
TAFLEB
TAF AMD
KLEB 050323Z 0503/0524 00000KT P6SM OVC017
      TEMPO 0504/0508 5SM -SHRA BKN005
     FM051300 01003KT P6SM OVC025=



000
FTUS41 KGYX 050205 AAA
TAFPWM
TAF AMD
KPWM 050205Z 0502/0524 07009KT 6SM -RADZ BR OVC045
      TEMPO 0502/0505 4SM -RADZ BR OVC015
     FM050500 03010KT 4SM BR OVC007
      TEMPO 0505/0509 1 1/2SM -DZ BR OVC003
     FM051300 03012G19KT 2SM BR OVC003
     FM051600 03013G20KT 4SM BR OVC007=



000
FTUS41 KGYX 050203 AAA
TAFLEB
TAF AMD
KLEB 050203Z 0502/0524 35003KT P6SM BKN001 OVC014
     FM050500 36003KT P6SM OVC001
     FM051300 01003KT P6SM OVC015=



000
FTUS41 KGYX 050203 AAA
TAFLEB
TAF AMD
KLEB 050203Z 0502/0524 35003KT P6SM BKN001 OVC014
     FM050500 36003KT P6SM OVC001
     FM051300 01003KT P6SM OVC015=



000
FTUS41 KGYX 042320
TAFLEB
TAF
KLEB 042320Z 0500/0524 12004KT P6SM -RA OVC025
     FM050200 10002KT 6SM -RA BR OVC015
     FM050500 36003KT P6SM OVC008
     FM051300 01003KT P6SM OVC015=



000
FTUS41 KGYX 042320
TAFLEB
TAF
KLEB 042320Z 0500/0524 12004KT P6SM -RA OVC025
     FM050200 10002KT 6SM -RA BR OVC015
     FM050500 36003KT P6SM OVC008
     FM051300 01003KT P6SM OVC015=



000
FTUS41 KGYX 042320
TAFPSM
TAF
KPSM 042320Z 0500/0524 04010KT 4SM -RADZ BR OVC007
     FM050700 02011KT 4SM BR OVC007
     FM051200 03012KT 1 1/2SM BR OVC003
     FM051600 04011G20KT 2SM BR OVC012=



000
FTUS41 KGYX 042320
TAFPWM
TAF
KPWM 042320Z 0500/0524 07009KT 5SM -RADZ BR OVC007
     FM050500 03010KT 4SM BR OVC007
      TEMPO 0505/0509 1 1/2SM -DZ BR OVC003
     FM051300 03012G19KT 2SM BR OVC003
     FM051600 03013G20KT 4SM BR OVC007=



000
FTUS41 KGYX 042320
TAFAUG
TAF
KAUG 042320Z 0500/0524 10006KT 4SM -RA BR OVC015
     FM050500 02009KT 4SM -RADZ BR OVC005
     FM051000 02011KT 4SM BR OVC007 PROB30 0510/0511 1SM -DZ BR
      OVC003
     FM051500 02010G20KT 5SM BR OVC004=



000
FTUS41 KGYX 042320
TAFCON
TAF
KCON 042320Z 0500/0524 05006KT 5SM -RADZ BR OVC007
     FM050300 35005KT 5SM -RADZ OVC007
     FM050900 02009KT 5SM BR OVC006
     FM051500 04010G20KT P6SM OVC015=



000
FTUS41 KGYX 042320
TAFCON
TAF
KCON 042320Z 0500/0524 05006KT 5SM -RADZ BR OVC007
     FM050300 35005KT 5SM -RADZ OVC007
     FM050900 02009KT 5SM BR OVC006
     FM051500 04010G20KT P6SM OVC015=



000
FTUS41 KGYX 042320
TAFPSM
TAF
KPSM 042320Z 0500/0524 04010KT 4SM -RADZ BR OVC007
     FM050700 02011KT 4SM BR OVC007
     FM051200 03012KT 1 1/2SM BR OVC003
     FM051600 04011G20KT 2SM BR OVC012=



000
FTUS41 KGYX 042320
TAFAUG
TAF
KAUG 042320Z 0500/0524 10006KT 4SM -RA BR OVC015
     FM050500 02009KT 4SM -RADZ BR OVC005
     FM051000 02011KT 4SM BR OVC007 PROB30 0510/0511 1SM -DZ BR
      OVC003
     FM051500 02010G20KT 5SM BR OVC004=



000
FTUS41 KGYX 042320
TAFPWM
TAF
KPWM 042320Z 0500/0524 07009KT 5SM -RADZ BR OVC007
     FM050500 03010KT 4SM BR OVC007
      TEMPO 0505/0509 1 1/2SM -DZ BR OVC003
     FM051300 03012G19KT 2SM BR OVC003
     FM051600 03013G20KT 4SM BR OVC007=



000
FTUS41 KGYX 041858 AAA
TAFPWM
TAF AMD
KPWM 041858Z 0419/0518 09010KT P6SM OVC008
     FM042100 07009KT 4SM -RA BR OVC007
     FM050500 03010KT 4SM BR OVC007
      TEMPO 0505/0509 1 1/2SM -DZ BR OVC003
     FM051300 03012G19KT 2SM BR OVC003
     FM051600 03013G19KT 4SM BR OVC007=



000
FTUS41 KGYX 041858 AAB
TAFLEB
TAF AMD
KLEB 041858Z 0419/0518 12004KT P6SM -RA BKN020 OVC025
     FM050200 10002KT 6SM -RA BR OVC015
     FM050500 09002KT P6SM OVC015
     FM051000 00000KT P6SM OVC007
     FM051300 01003KT P6SM OVC015=



000
FTUS41 KGYX 041858 AAA
TAFPWM
TAF AMD
KPWM 041858Z 0419/0518 09010KT P6SM OVC008
     FM042100 07009KT 4SM -RA BR OVC007
     FM050500 03010KT 4SM BR OVC007
      TEMPO 0505/0509 1 1/2SM -DZ BR OVC003
     FM051300 03012G19KT 2SM BR OVC003
     FM051600 03013G19KT 4SM BR OVC007=



000
FTUS41 KGYX 041858 AAB
TAFLEB
TAF AMD
KLEB 041858Z 0419/0518 12004KT P6SM -RA BKN020 OVC025
     FM050200 10002KT 6SM -RA BR OVC015
     FM050500 09002KT P6SM OVC015
     FM051000 00000KT P6SM OVC007
     FM051300 01003KT P6SM OVC015=



000
FTUS41 KGYX 041808 AAA
TAFLEB
TAF AMD
KLEB 041808Z 0418/0518 12003KT P6SM -RA BKN018 BKN025 OVC035
     FM041900 10002KT 4SM -RA BR OVC015
     FM050200 10002KT 6SM -RA BR OVC015
     FM050500 09002KT P6SM OVC015
     FM051000 00000KT P6SM OVC007
     FM051300 01003KT P6SM OVC015=



000
FTUS41 KGYX 041808 AAA
TAFLEB
TAF AMD
KLEB 041808Z 0418/0518 12003KT P6SM -RA BKN018 BKN025 OVC035
     FM041900 10002KT 4SM -RA BR OVC015
     FM050200 10002KT 6SM -RA BR OVC015
     FM050500 09002KT P6SM OVC015
     FM051000 00000KT P6SM OVC007
     FM051300 01003KT P6SM OVC015=



000
FTUS41 KGYX 041721
TAFPWM
TAF
KPWM 041721Z 0418/0518 11006KT P6SM -RA BKN012 OVC029
     FM042100 07009KT 4SM -RA BR OVC007
     FM050500 03010KT 4SM BR OVC007
      TEMPO 0505/0509 1 1/2SM -DZ BR OVC003
     FM051300 03012G19KT 2SM BR OVC003
     FM051600 03013G19KT 4SM BR OVC007=



000
FTUS41 KGYX 041721
TAFPWM
TAF
KPWM 041721Z 0418/0518 11006KT P6SM -RA BKN012 OVC029
     FM042100 07009KT 4SM -RA BR OVC007
     FM050500 03010KT 4SM BR OVC007
      TEMPO 0505/0509 1 1/2SM -DZ BR OVC003
     FM051300 03012G19KT 2SM BR OVC003
     FM051600 03013G19KT 4SM BR OVC007=



000
FTUS41 KGYX 041721
TAFAUG
TAF
KAUG 041721Z 0418/0518 VRB04KT P6SM OVC035
     FM042000 09005KT P6SM OVC025
     FM042300 10006KT 4SM -RA BR OVC015
     FM050500 02009KT 4SM -RA BR OVC003
     FM051000 02011KT 2SM BR OVC007 PROB30 0510/0511 1SM -DZ BR
      OVC003
     FM051500 02010KT 4SM BR OVC003
     FM051600 03011KT P6SM OVC007=



000
FTUS41 KGYX 041721
TAFCON
TAF
KCON 041721Z 0418/0518 11004KT 5SM HZ OVC024
     FM042200 05006KT 4SM -RA BR OVC007
     FM050300 35005KT 5SM -RA OVC007
     FM050400 35006KT P6SM OVC007 PROB30 0504/0509 4SM -DZ BR OVC003
     FM051500 04009KT P6SM OVC015=



000
FTUS41 KGYX 041721
TAFLEB
TAF
KLEB 041721Z 0418/0518 VRB05KT P6SM -RA SCT027 OVC035
     FM041900 10002KT 4SM -RA BR OVC015
     FM050200 10002KT 6SM -RA BR OVC015
     FM050500 09002KT P6SM OVC015
     FM051000 00000KT P6SM OVC007
     FM051300 01003KT P6SM OVC015=



000
FTUS41 KGYX 041721
TAFCON
TAF
KCON 041721Z 0418/0518 11004KT 5SM HZ OVC024
     FM042200 05006KT 4SM -RA BR OVC007
     FM050300 35005KT 5SM -RA OVC007
     FM050400 35006KT P6SM OVC007 PROB30 0504/0509 4SM -DZ BR OVC003
     FM051500 04009KT P6SM OVC015=



000
FTUS41 KGYX 041721
TAFAUG
TAF
KAUG 041721Z 0418/0518 VRB04KT P6SM OVC035
     FM042000 09005KT P6SM OVC025
     FM042300 10006KT 4SM -RA BR OVC015
     FM050500 02009KT 4SM -RA BR OVC003
     FM051000 02011KT 2SM BR OVC007 PROB30 0510/0511 1SM -DZ BR
      OVC003
     FM051500 02010KT 4SM BR OVC003
     FM051600 03011KT P6SM OVC007=



000
FTUS41 KGYX 041721
TAFLEB
TAF
KLEB 041721Z 0418/0518 VRB05KT P6SM -RA SCT027 OVC035
     FM041900 10002KT 4SM -RA BR OVC015
     FM050200 10002KT 6SM -RA BR OVC015
     FM050500 09002KT P6SM OVC015
     FM051000 00000KT P6SM OVC007
     FM051300 01003KT P6SM OVC015=



000
FTUS41 KGYX 041721
TAFPSM
TAF
KPSM 041721Z 0418/0518 09009KT P6SM BKN018 OVC026
     FM042100 09009KT 5SM -RA OVC009
     FM050000 04010KT 4SM -RA BR OVC007
     FM050700 02011KT 4SM BR OVC007 PROB30 0507/0512 4SM -DZ BR
      OVC003
     FM051200 03012KT 1 1/2SM BR OVC003
     FM051600 04011G17KT 2SM BR OVC012=



000
FTUS41 KGYX 041721
TAFPSM
TAF
KPSM 041721Z 0418/0518 09009KT P6SM BKN018 OVC026
     FM042100 09009KT 5SM -RA OVC009
     FM050000 04010KT 4SM -RA BR OVC007
     FM050700 02011KT 4SM BR OVC007 PROB30 0507/0512 4SM -DZ BR
      OVC003
     FM051200 03012KT 1 1/2SM BR OVC003
     FM051600 04011G17KT 2SM BR OVC012=



000
FTUS41 KGYX 041553 AAF
TAFPSM
TAF AMD
KPSM 041553Z 0416/0512 10010KT P6SM OVC022
     FM042100 06012KT 6SM -RA OVC010
     FM050000 05009KT 4SM -RA BR OVC007=



000
FTUS41 KGYX 041537 AAE
TAFPSM
TAF AMD
KPSM 041537Z 0416/0512 11010KT P6SM -DZ BKN019 OVC025
     FM042100 06012KT 6SM -RA OVC010
     FM050000 05009KT 4SM -RA BR OVC007=



000
FTUS41 KGYX 041439 AAD
TAFPSM
TAF AMD
KPSM 041439Z 0415/0512 08010KT P6SM FEW020 SCT025 BKN030
     FM041600 05003KT P6SM OVC015
     FM042100 06012KT 6SM -RA OVC010
     FM050000 05009KT 4SM -RA BR OVC007=



000
FTUS41 KGYX 041439 AAD
TAFPSM
TAF AMD
KPSM 041439Z 0415/0512 08010KT P6SM FEW020 SCT025 BKN030
     FM041600 05003KT P6SM OVC015
     FM042100 06012KT 6SM -RA OVC010
     FM050000 05009KT 4SM -RA BR OVC007=



000
FTUS41 KGYX 041439 AAB
TAFAUG
TAF AMD
KAUG 041439Z 0415/0512 04007KT P6SM SCT017 BKN040 OVC090
     FM041900 08008KT P6SM OVC015
     FM050400 03009KT 4SM -RA BR OVC004=



000
FTUS41 KGYX 041439 AAB
TAFAUG
TAF AMD
KAUG 041439Z 0415/0512 04007KT P6SM SCT017 BKN040 OVC090
     FM041900 08008KT P6SM OVC015
     FM050400 03009KT 4SM -RA BR OVC004=



000
FTUS41 KGYX 041439 AAC
TAFPSM
TAF AMD
KPSM 041439Z 0415/0512 08010KT P6SM FEW020 SCT025 BKN030
     FM041600 05003KT P6SM OVC015
     FM042100 06012KT 6SM -RA OVC010
     FM050000 05009KT 4SM -RA BR OVC007=



000
FTUS41 KGYX 041439 AAC
TAFPSM
TAF AMD
KPSM 041439Z 0415/0512 08010KT P6SM FEW020 SCT025 BKN030
     FM041600 05003KT P6SM OVC015
     FM042100 06012KT 6SM -RA OVC010
     FM050000 05009KT 4SM -RA BR OVC007=



000
FTUS41 KGYX 041438 AAB
TAFPSM
TAF AMD
KPSM 041438Z 0415/0512 08010KT P6SM FEW020 SCT025 BKN030 OVC080
     FM041600 05003KT P6SM OVC015
     FM042100 06012KT 6SM -RA OVC010
     FM050000 05009KT 4SM -RA BR OVC007=



000
FTUS41 KGYX 041438 AAB
TAFPSM
TAF AMD
KPSM 041438Z 0415/0512 08010KT P6SM FEW020 SCT025 BKN030 OVC080
     FM041600 05003KT P6SM OVC015
     FM042100 06012KT 6SM -RA OVC010
     FM050000 05009KT 4SM -RA BR OVC007=



000
FTUS41 KGYX 041343 AAA
TAFPWM
TAF AMD
KPWM 041343Z 0414/0512 09008KT P6SM SCT017 BKN023 BKN050
     FM041900 08008KT P6SM OVC015
     FM050000 07006KT 4SM -DZ OVC007
     FM050800 02013KT 4SM BR OVC003=



000
FTUS41 KGYX 041327 AAA
TAFAUG
TAF AMD
KAUG 041327Z 0413/0512 05003KT P6SM SCT014 BKN020 OVC040
     FM041900 08008KT P6SM OVC015 PROB30 0423/0502 4SM -RA OVC010
     FM050400 03009KT 4SM -RA BR OVC004=



000
FTUS41 KGYX 041327 AAA
TAFLEB
TAF AMD
KLEB 041327Z 0413/0512 00000KT P6SM OVC020
     FM042000 06005KT 6SM -RA OVC010=



000
FTUS41 KGYX 041327 AAA
TAFLEB
TAF AMD
KLEB 041327Z 0413/0512 00000KT P6SM OVC020
     FM042000 06005KT 6SM -RA OVC010=



000
FTUS41 KGYX 041327 AAA
TAFAUG
TAF AMD
KAUG 041327Z 0413/0512 05003KT P6SM SCT014 BKN020 OVC040
     FM041900 08008KT P6SM OVC015 PROB30 0423/0502 4SM -RA OVC010
     FM050400 03009KT 4SM -RA BR OVC004=



000
FTUS41 KGYX 041326 AAA
TAFCON
TAF AMD
KCON 041326Z 0413/0512 11004KT P6SM BKN017 OVC025
     FM041400 08006KT P6SM OVC025
     FM042100 09006KT P6SM OVC010
     FM050000 06005KT 4SM -RA BR OVC007=



000
FTUS41 KGYX 041326 AAA
TAFPSM
TAF AMD
KPSM 041326Z 0413/0512 10006KT P6SM BKN015 BKN080 OVC120
     FM041600 05003KT P6SM OVC015
     FM042100 06012KT 6SM -RA OVC010
     FM050000 05009KT 4SM -RA BR OVC007=



000
FTUS41 KGYX 041326 AAA
TAFPSM
TAF AMD
KPSM 041326Z 0413/0512 10006KT P6SM BKN015 BKN080 OVC120
     FM041600 05003KT P6SM OVC015
     FM042100 06012KT 6SM -RA OVC010
     FM050000 05009KT 4SM -RA BR OVC007=



000
FTUS41 KGYX 041128
TAFPSM
TAF
KPSM 041128Z 0412/0512 35001KT P6SM BKN025 OVC080
     FM041600 05003KT P6SM OVC015
     FM042100 06012KT 6SM -RA OVC010
     FM050000 05009KT 4SM -RA BR OVC007=



000
FTUS41 KGYX 041128
TAFAUG
TAF
KAUG 041128Z 0412/0512 05005KT P6SM OVC040
     FM041900 08008KT P6SM OVC015 PROB30 0423/0502 4SM -RA OVC010
     FM050400 03009KT 4SM -RA BR OVC004=



000
FTUS41 KGYX 041128
TAFCON
TAF
KCON 041128Z 0412/0512 09004KT P6SM OVC070
     FM041400 08006KT P6SM OVC025
     FM042100 09006KT P6SM OVC010 PROB30 0421/0424 6SM -RA OVC010
     FM050000 06005KT 4SM -RA BR OVC007=



000
FTUS41 KGYX 041128
TAFLEB
TAF
KLEB 041128Z 0412/0512 06004KT P6SM BKN019 OVC040
     FM042000 06005KT 6SM -RA OVC010=



000
FTUS41 KGYX 041128
TAFPWM
TAF
KPWM 041128Z 0412/0512 00000KT P6SM SCT045 BKN090
     FM041900 08008KT P6SM OVC015
     FM050000 07006KT 4SM -DZ OVC007
     FM050800 02013KT 4SM BR OVC003=



000
FTUS41 KGYX 041128
TAFPSM
TAF
KPSM 041128Z 0412/0512 35001KT P6SM BKN025 OVC080
     FM041600 05003KT P6SM OVC015
     FM042100 06012KT 6SM -RA OVC010
     FM050000 05009KT 4SM -RA BR OVC007=



000
FTUS41 KGYX 041128
TAFCON
TAF
KCON 041128Z 0412/0512 09004KT P6SM OVC070
     FM041400 08006KT P6SM OVC025
     FM042100 09006KT P6SM OVC010 PROB30 0421/0424 6SM -RA OVC010
     FM050000 06005KT 4SM -RA BR OVC007=



000
FTUS41 KGYX 041128
TAFPWM
TAF
KPWM 041128Z 0412/0512 00000KT P6SM SCT045 BKN090
     FM041900 08008KT P6SM OVC015
     FM050000 07006KT 4SM -DZ OVC007
     FM050800 02013KT 4SM BR OVC003=



000
FTUS41 KGYX 041128
TAFAUG
TAF
KAUG 041128Z 0412/0512 05005KT P6SM OVC040
     FM041900 08008KT P6SM OVC015 PROB30 0423/0502 4SM -RA OVC010
     FM050400 03009KT 4SM -RA BR OVC004=



000
FTUS41 KGYX 041128
TAFLEB
TAF
KLEB 041128Z 0412/0512 06004KT P6SM BKN019 OVC040
     FM042000 06005KT 6SM -RA OVC010=



000
FTUS41 KGYX 041020 AAB
TAFCON
TAF AMD
KCON 041020Z 0410/0506 09004KT P6SM OVC070
     FM041600 08006KT P6SM OVC025
     FM042100 09006KT P6SM OVC010 PROB30 0421/0424 6SM -RA OVC010
     FM050000 06005KT 4SM -RA BR OVC007=



000
FTUS41 KGYX 041020 AAB
TAFPSM
TAF AMD
KPSM 041020Z 0410/0506 35001KT P6SM OVC080
     FM041600 05003KT P6SM OVC015
     FM042100 06012KT 6SM -RA OVC010
     FM050000 05009KT 4SM -RA BR OVC007=



000
FTUS41 KGYX 041020 AAB
TAFCON
TAF AMD
KCON 041020Z 0410/0506 09004KT P6SM OVC070
     FM041600 08006KT P6SM OVC025
     FM042100 09006KT P6SM OVC010 PROB30 0421/0424 6SM -RA OVC010
     FM050000 06005KT 4SM -RA BR OVC007=



000
FTUS41 KGYX 041019 AAB
TAFLEB
TAF AMD
KLEB 041019Z 0410/0506 06004KT P6SM OVC040
     FM042000 06005KT 6SM -RA OVC010=



000
FTUS41 KGYX 041019 AAB
TAFLEB
TAF AMD
KLEB 041019Z 0410/0506 06004KT P6SM OVC040
     FM042000 06005KT 6SM -RA OVC010=



000
FTUS41 KGYX 040857 AAA
TAFPWM
TAF AMD
KPWM 040857Z 0409/0506 00000KT P6SM SCT045 BKN090
     FM041900 08008KT P6SM OVC015
     FM050000 07006KT 4SM -DZ OVC007=



000
FTUS41 KGYX 040857 AAA
TAFPWM
TAF AMD
KPWM 040857Z 0409/0506 00000KT P6SM SCT045 BKN090
     FM041900 08008KT P6SM OVC015
     FM050000 07006KT 4SM -DZ OVC007=



000
FTUS41 KGYX 040857 AAA
TAFAUG
TAF AMD
KAUG 040857Z 0409/0506 05005KT P6SM OVC040
     FM041900 08008KT P6SM OVC015 PROB30 0423/0502 4SM -RA OVC010
     FM050400 03009KT 4SM -RA BR OVC004=



000
FTUS41 KGYX 040857 AAA
TAFLEB
TAF AMD
KLEB 040857Z 0409/0506 06003KT P6SM OVC035
     FM041000 03003KT P6SM OVC012
     FM042000 06005KT 6SM -RA OVC010=



000
FTUS41 KGYX 040857 AAA
TAFCON
TAF AMD
KCON 040857Z 0409/0506 09004KT P6SM OVC070
     FM041000 08006KT P6SM OVC025
     FM042100 09006KT P6SM OVC010 PROB30 0421/0424 6SM -RA OVC010
     FM050000 06005KT 4SM -RA BR OVC007=



000
FTUS41 KGYX 040857 AAA
TAFPSM
TAF AMD
KPSM 040857Z 0409/0506 35001KT 6SM BR OVC080
     FM041000 05003KT P6SM OVC015
     FM042100 06012KT 6SM -RA OVC010
     FM050000 05009KT 4SM -RA BR OVC007=



000
FTUS41 KGYX 040857 AAA
TAFAUG
TAF AMD
KAUG 040857Z 0409/0506 05005KT P6SM OVC040
     FM041900 08008KT P6SM OVC015 PROB30 0423/0502 4SM -RA OVC010
     FM050400 03009KT 4SM -RA BR OVC004=



000
FTUS41 KGYX 040857 AAA
TAFLEB
TAF AMD
KLEB 040857Z 0409/0506 06003KT P6SM OVC035
     FM041000 03003KT P6SM OVC012
     FM042000 06005KT 6SM -RA OVC010=



000
FTUS41 KGYX 040857 AAA
TAFPSM
TAF AMD
KPSM 040857Z 0409/0506 35001KT 6SM BR OVC080
     FM041000 05003KT P6SM OVC015
     FM042100 06012KT 6SM -RA OVC010
     FM050000 05009KT 4SM -RA BR OVC007=



000
FTUS41 KGYX 040857 AAA
TAFCON
TAF AMD
KCON 040857Z 0409/0506 09004KT P6SM OVC070
     FM041000 08006KT P6SM OVC025
     FM042100 09006KT P6SM OVC010 PROB30 0421/0424 6SM -RA OVC010
     FM050000 06005KT 4SM -RA BR OVC007=



000
FTUS41 KGYX 040525
TAFLEB
TAF
KLEB 040525Z 0406/0506 00000KT P6SM OVC035
     FM041000 03003KT P6SM OVC012
     FM042000 06005KT 6SM -RA OVC010=



000
FTUS41 KGYX 040525
TAFAUG
TAF
KAUG 040525Z 0406/0506 08007KT P6SM OVC040
     FM041900 08008KT P6SM OVC015 PROB30 0423/0502 4SM -RA OVC010
     FM050400 03009KT 4SM -RA BR OVC004=



000
FTUS41 KGYX 040525
TAFPSM
TAF
KPSM 040525Z 0406/0506 33002KT P6SM OVC050
     FM041000 05003KT P6SM OVC015
     FM042100 06012KT 6SM -RA OVC010
     FM050000 05009KT 4SM -RA BR OVC007=



000
FTUS41 KGYX 040525
TAFPWM
TAF
KPWM 040525Z 0406/0506 14004KT P6SM OVC040
     FM040900 08008KT P6SM SCT007 OVC015
     FM041900 08008KT P6SM OVC015
     FM050000 07006KT 4SM -DZ OVC007=



000
FTUS41 KGYX 040525
TAFCON
TAF
KCON 040525Z 0406/0506 11003KT P6SM OVC035
     FM041000 08006KT P6SM OVC025
     FM042100 09006KT P6SM OVC010 PROB30 0421/0424 6SM -RA OVC010
     FM050000 06005KT 4SM -RA BR OVC007=



000
FTUS41 KGYX 040525
TAFPSM
TAF
KPSM 040525Z 0406/0506 33002KT P6SM OVC050
     FM041000 05003KT P6SM OVC015
     FM042100 06012KT 6SM -RA OVC010
     FM050000 05009KT 4SM -RA BR OVC007=



000
FTUS41 KGYX 040525
TAFPWM
TAF
KPWM 040525Z 0406/0506 14004KT P6SM OVC040
     FM040900 08008KT P6SM SCT007 OVC015
     FM041900 08008KT P6SM OVC015
     FM050000 07006KT 4SM -DZ OVC007=



000
FTUS41 KGYX 040525
TAFAUG
TAF
KAUG 040525Z 0406/0506 08007KT P6SM OVC040
     FM041900 08008KT P6SM OVC015 PROB30 0423/0502 4SM -RA OVC010
     FM050400 03009KT 4SM -RA BR OVC004=



000
FTUS41 KGYX 040525
TAFLEB
TAF
KLEB 040525Z 0406/0506 00000KT P6SM OVC035
     FM041000 03003KT P6SM OVC012
     FM042000 06005KT 6SM -RA OVC010=



000
FTUS41 KGYX 040525
TAFCON
TAF
KCON 040525Z 0406/0506 11003KT P6SM OVC035
     FM041000 08006KT P6SM OVC025
     FM042100 09006KT P6SM OVC010 PROB30 0421/0424 6SM -RA OVC010
     FM050000 06005KT 4SM -RA BR OVC007=



000
FTUS41 KGYX 032320
TAFCON
TAF
KCON 032320Z 0400/0424 11003KT P6SM OVC035
     FM041000 08006KT P6SM OVC025
     FM041800 06005KT 6SM -RA OVC010=



000
FTUS41 KGYX 032320
TAFAUG
TAF
KAUG 032320Z 0400/0424 06004KT P6SM OVC035
     FM040600 08007KT P6SM OVC015
     FM041900 08008KT P6SM OVC015 PROB30 0421/0424 4SM -RA OVC007=



000
FTUS41 KGYX 032320
TAFPWM
TAF
KPWM 032320Z 0400/0424 14004KT P6SM OVC040
     FM040900 08008KT P6SM SCT007 OVC015
     FM041900 08008KT P6SM OVC015 PROB30 0419/0424 4SM -RA OVC007=



000
FTUS41 KGYX 032320
TAFPSM
TAF
KPSM 032320Z 0400/0424 10005KT P6SM OVC028
     FM040200 20002KT P6SM OVC050
     FM041000 05003KT P6SM OVC015
     FM041800 06005KT 6SM -RA OVC010=



000
FTUS41 KGYX 032320
TAFCON
TAF
KCON 032320Z 0400/0424 11003KT P6SM OVC035
     FM041000 08006KT P6SM OVC025
     FM041800 06005KT 6SM -RA OVC010=



000
FTUS41 KGYX 032320
TAFLEB
TAF
KLEB 032320Z 0400/0424 04005KT P6SM OVC030
     FM040300 00000KT P6SM OVC020
     FM041000 03003KT P6SM OVC012
     FM041800 06005KT 6SM -RA OVC010=



000
FTUS41 KGYX 032320
TAFPWM
TAF
KPWM 032320Z 0400/0424 14004KT P6SM OVC040
     FM040900 08008KT P6SM SCT007 OVC015
     FM041900 08008KT P6SM OVC015 PROB30 0419/0424 4SM -RA OVC007=



000
FTUS41 KGYX 032320
TAFAUG
TAF
KAUG 032320Z 0400/0424 06004KT P6SM OVC035
     FM040600 08007KT P6SM OVC015
     FM041900 08008KT P6SM OVC015 PROB30 0421/0424 4SM -RA OVC007=



000
FTUS41 KGYX 032320
TAFPSM
TAF
KPSM 032320Z 0400/0424 10005KT P6SM OVC028
     FM040200 20002KT P6SM OVC050
     FM041000 05003KT P6SM OVC015
     FM041800 06005KT 6SM -RA OVC010=



000
FTUS41 KGYX 032320
TAFLEB
TAF
KLEB 032320Z 0400/0424 04005KT P6SM OVC030
     FM040300 00000KT P6SM OVC020
     FM041000 03003KT P6SM OVC012
     FM041800 06005KT 6SM -RA OVC010=



    US Dept of Commerce
    National Oceanic and Atmospheric Administration
    National Weather Service
    1325 East West Highway
    Silver Spring, MD 20910
    Page Author: NWS Internet Services Team
Disclaimer
Information Quality
Credits
Glossary
Privacy Policy
Freedom of Information Act (FOIA)
About Us
Career Opportunities